Bartlesville, OK (74003)

10:41 AM CST on February 01, 2015 (GMT -0600)
Bartlesville - Osage County | Change Station
CLOSE
Current Station
Personal Weather Station
Location: Bartlesville, OK
Elevation: 873 ft
Nearby Weather Stations
Active Advisory: Wind Advisory

Elev 873 ft 36.76 °N, 96.04 °W | Updated 47 seconds ago

Overcast
Overcast
34.5 °F
Feels Like 26 °F
N
13.0
Wind Variable Wind from NW
Gusts 13.0 mph

Today
High -- | Low -- °F
--% Chance of Precip.
Yesterday
High -- | Low -- °F
Precip. -- in
7:26 AM 5:49 PM
Waxing Gibbous, 95% visible
Pressure 29.94 in
Visibility 10.0 miles
Clouds Overcast 1800 ft
Windchill 26 °F
Dew Point 30 °F
Humidity 83%
Rainfall 0.07 in
Snow Depth Not available.
UV 1 out of 12
Pollen 1.50 out of 12
Air Quality Not available.
Flu Activity Not available.
METAR KBVO 011553Z 32007G15KT 270V350 10SM OVC018 02/00 A2994 RMK AO2 SLP138 T00220000

More Conditions Fewer Conditions

Pressure 29.94 in
Visibility 10.0 miles
Clouds Overcast 1800 ft
Windchill 26 °F
Dew Point 30 °F
Humidity 83%
Rainfall 0.07 in
Snow Depth Not available.
UV 1 out of 12
Pollen 1.50 out of 12
Air Quality Not available.
Flu Activity Not available.
METAR KBVO 011553Z 32007G15KT 270V350 10SM OVC018 02/00 A2994 RMK AO2 SLP138 T00220000

More Conditions Fewer Conditions

10-Day Weather Forecast

Almanac

Astronomy

Feb. 01, 2015 Rise Set
Actual Time
Civil Twilight
Nautical Twilight
Astronomical Twilight
Moon
Length of Visible Light
Length of Day
Tomorrow will be .
, % of the Moon is Illuminated

Today's Extremes

State Highs State Lows

Community

WunderPhotos

Upload Photos

1,792,367 photos uploaded!

WunderBlogs® & News

Nearby

Air Quality

  Air Quality AQ Index Pollutant
Not available.

Snow Depth

Station Depth Elevation

Earthquake Activity

City Distance Mag. Time & Date
Minimum magnitude displayed is 2.5.

Coastal Water Temperatures

Place Temperature

Nearby Weather Stations